createdAt,value
2018-05-02T00:00:59.756Z,2.60
2018-05-02T00:03:26.172Z,2.60
2018-05-02T00:05:52.621Z,2.90
2018-05-02T00:08:19.043Z,2.67
2018-05-02T00:10:45.466Z,2.90
2018-05-02T00:13:11.881Z,2.40
2018-05-02T00:15:38.426Z,3.13
2018-05-02T00:18:04.932Z,2.63
2018-05-02T00:20:31.347Z,2.80
2018-05-02T00:22:57.796Z,2.67
2018-05-02T00:25:24.263Z,2.90
2018-05-02T00:27:50.705Z,3.67
2018-05-02T00:30:17.154Z,2.80
2018-05-02T00:32:44.855Z,2.77
2018-05-02T00:35:12.351Z,3.13
2018-05-02T00:37:41.315Z,3.27
2018-05-02T00:40:07.950Z,3.30
2018-05-02T00:42:34.564Z,2.80
2018-05-02T00:45:00.999Z,4.73
2018-05-02T00:47:27.401Z,2.93
2018-05-02T00:49:54.015Z,3.30
2018-05-02T00:52:20.502Z,3.23
2018-05-02T00:54:47.675Z,3.43
2018-05-02T00:57:14.162Z,2.97
2018-05-02T00:59:41.177Z,3.30
2018-05-02T01:02:08.590Z,3.27
2018-05-02T01:04:35.091Z,3.20
2018-05-02T01:07:01.737Z,3.47
2018-05-02T01:09:28.127Z,4.00
2018-05-02T01:11:55.343Z,3.33
2018-05-02T01:14:21.821Z,3.50
2018-05-02T01:16:51.315Z,3.30
2018-05-02T01:19:18.613Z,3.33
2018-05-02T01:21:45.019Z,4.63
2018-05-02T01:24:11.864Z,4.03
2018-05-02T01:26:39.203Z,4.17
2018-05-02T01:29:06.386Z,3.70
2018-05-02T01:31:33.090Z,3.80
2018-05-02T01:34:00.451Z,3.73
2018-05-02T01:39:22.415Z,4.27
2018-05-02T01:41:49.011Z,3.93
2018-05-02T01:44:15.545Z,4.00
2018-05-02T01:46:42.314Z,3.53
2018-05-02T01:49:21.715Z,3.70
2018-05-02T01:51:48.340Z,3.90
2018-05-02T01:54:14.963Z,3.40
2018-05-02T01:56:41.333Z,3.70
2018-05-02T01:59:08.637Z,5.67
2018-05-02T02:01:35.282Z,3.53
2018-05-02T02:04:01.717Z,3.60
2018-05-02T02:06:28.253Z,3.97
2018-05-02T02:08:54.670Z,3.73
2018-05-02T02:11:21.233Z,4.27
2018-05-02T02:13:47.790Z,3.93
2018-05-02T02:16:14.301Z,4.13
2018-05-02T02:18:40.812Z,3.90
2018-05-02T02:21:07.984Z,4.50
2018-05-02T02:23:34.927Z,4.13
2018-05-02T02:26:01.465Z,4.80
2018-05-02T02:28:27.979Z,4.30
2018-05-02T02:30:54.415Z,4.37
2018-05-02T02:33:21.668Z,5.33
2018-05-02T02:35:48.569Z,4.60
2018-05-02T02:38:15.232Z,5.13
2018-05-02T02:40:42.553Z,5.33
2018-05-02T02:43:09.851Z,4.83
2018-05-02T02:45:37.299Z,5.30
2018-05-02T02:48:04.096Z,5.63
2018-05-02T02:50:31.210Z,4.40
2018-05-02T02:52:58.514Z,4.90
2018-05-02T02:55:24.947Z,4.37
2018-05-02T02:57:52.369Z,5.07
2018-05-02T03:00:18.767Z,6.00
2018-05-02T03:02:45.133Z,4.73
2018-05-02T03:05:11.563Z,4.70
2018-05-02T03:07:38.049Z,5.93
2018-05-02T03:10:04.494Z,5.50
2018-05-02T03:12:30.962Z,5.00
2018-05-02T03:14:58.557Z,4.43
2018-05-02T03:17:25.107Z,4.77
2018-05-02T03:19:51.594Z,5.57
2018-05-02T03:22:18.040Z,5.07
2018-05-02T03:24:44.402Z,5.00
2018-05-02T03:27:11.554Z,4.80
2018-05-02T03:29:37.987Z,5.30
2018-05-02T03:32:05.135Z,4.60
2018-05-02T03:34:31.938Z,5.20
2018-05-02T03:36:58.369Z,5.07
2018-05-02T03:39:24.940Z,5.23
2018-05-02T03:41:51.467Z,4.57
2018-05-02T03:44:18.652Z,4.70
2018-05-02T03:46:45.128Z,4.97
2018-05-02T03:49:11.740Z,6.30
2018-05-02T03:51:38.243Z,4.87
2018-05-02T03:54:05.556Z,4.83
2018-05-02T03:56:32.545Z,5.60
2018-05-02T03:58:59.138Z,5.13
2018-05-02T04:04:43.059Z,5.80
2018-05-02T04:07:13.739Z,5.50
2018-05-02T04:09:41.750Z,4.80
2018-05-02T04:12:23.191Z,4.87
2018-05-02T04:14:52.870Z,5.10
2018-05-02T04:17:19.762Z,4.63
2018-05-02T04:19:47.031Z,4.53
2018-05-02T04:22:14.435Z,4.50
2018-05-02T04:24:42.864Z,5.60
2018-05-02T04:27:09.347Z,4.90
2018-05-02T04:29:35.831Z,4.83
2018-05-02T04:32:03.193Z,5.20
2018-05-02T04:34:29.760Z,4.00
2018-05-02T04:36:57.298Z,4.93
2018-05-02T04:39:23.795Z,4.73
2018-05-02T04:41:51.463Z,5.33
2018-05-02T04:44:19.999Z,5.20
2018-05-02T04:46:46.534Z,5.00
2018-05-02T04:49:13.273Z,4.87
2018-05-02T04:51:41.454Z,4.83
2018-05-02T04:54:09.116Z,4.53
2018-05-02T04:56:35.575Z,4.73
2018-05-02T04:59:02.789Z,5.87
2018-05-02T05:01:29.269Z,4.63
2018-05-02T05:03:55.709Z,4.83
2018-05-02T05:06:22.183Z,4.87
2018-05-02T05:08:50.380Z,5.00
2018-05-02T05:11:18.274Z,4.87
2018-05-02T05:13:45.801Z,4.00
2018-05-02T05:16:12.313Z,4.03
2018-05-02T05:18:38.894Z,4.13
2018-05-02T05:21:05.903Z,4.57
2018-05-02T05:23:34.163Z,3.80
2018-05-02T05:26:02.599Z,4.90
2018-05-02T05:28:29.229Z,4.50
2018-05-02T05:30:56.993Z,4.57
2018-05-02T05:33:25.076Z,4.63
2018-05-02T05:35:51.686Z,4.50
2018-05-02T05:38:18.526Z,4.43
2018-05-02T05:40:46.735Z,4.00
2018-05-02T05:43:13.521Z,4.53
2018-05-02T05:45:40.478Z,4.17
2018-05-02T05:48:06.976Z,4.33
2018-05-02T05:50:34.857Z,4.70
2018-05-02T05:53:01.414Z,5.00
2018-05-02T05:55:28.007Z,4.13
2018-05-02T05:57:54.677Z,4.37
2018-05-02T06:00:21.218Z,3.50
2018-05-02T06:02:47.726Z,4.30
2018-05-02T06:05:15.017Z,3.80
2018-05-02T06:07:42.287Z,3.83
2018-05-02T06:10:09.203Z,4.53
2018-05-02T06:12:35.896Z,3.90
2018-05-02T06:15:08.130Z,4.07
2018-05-02T06:17:34.947Z,3.90
2018-05-02T06:20:02.372Z,4.53
2018-05-02T06:22:30.020Z,3.67
2018-05-02T06:24:56.502Z,4.10
2018-05-02T06:27:23.015Z,4.50
2018-05-02T06:29:49.547Z,4.60
2018-05-02T06:32:16.927Z,4.13
2018-05-02T06:34:44.448Z,4.30
2018-05-02T06:37:11.427Z,4.07
2018-05-02T06:39:39.429Z,4.40
2018-05-02T06:42:06.576Z,4.60
2018-05-02T06:44:33.345Z,3.67
2018-05-02T06:47:00.572Z,4.00
2018-05-02T06:49:27.214Z,3.70
2018-05-02T06:51:53.845Z,4.20
2018-05-02T06:54:20.696Z,3.60
2018-05-02T06:56:47.214Z,4.10
2018-05-02T06:59:13.678Z,3.73
2018-05-02T07:01:40.724Z,4.50
2018-05-02T07:04:08.117Z,3.70
2018-05-02T07:06:35.314Z,3.70
2018-05-02T07:09:02.253Z,3.67
2018-05-02T07:11:29.564Z,3.63
2018-05-02T07:13:56.810Z,3.70
2018-05-02T07:16:24.546Z,3.53
2018-05-02T07:18:51.881Z,4.20
2018-05-02T07:21:19.137Z,3.60
2018-05-02T07:23:46.415Z,3.57
2018-05-02T07:26:13.773Z,3.80
2018-05-02T07:28:41.440Z,3.33
2018-05-02T07:31:08.513Z,3.80
2018-05-02T07:33:35.379Z,4.20
2018-05-02T07:36:01.993Z,3.80
2018-05-02T07:38:30.212Z,4.30
2018-05-02T07:40:56.851Z,4.07
2018-05-02T07:43:24.428Z,3.87
2018-05-02T07:45:51.079Z,3.43
2018-05-02T07:48:17.691Z,3.03
2018-05-02T07:50:44.252Z,3.63
2018-05-02T07:53:10.698Z,3.07
2018-05-02T07:55:37.144Z,3.10
2018-05-02T07:58:04.652Z,3.47
2018-05-02T08:00:31.571Z,3.37
2018-05-02T08:02:59.258Z,2.80
2018-05-02T08:05:28.225Z,2.40
2018-05-02T08:07:56.407Z,2.50
2018-05-02T08:10:24.582Z,2.87
2018-05-02T08:12:53.574Z,2.67
2018-05-02T08:15:21.072Z,2.23
2018-05-02T08:17:47.726Z,2.70
2018-05-02T08:20:14.355Z,3.17
2018-05-02T08:22:42.380Z,2.73
2018-05-02T08:25:08.953Z,2.73
2018-05-02T08:27:35.511Z,2.20
2018-05-02T08:30:02.819Z,5.00
2018-05-02T08:32:29.422Z,2.20
2018-05-02T08:34:56.029Z,2.47
2018-05-02T08:37:22.728Z,2.00
2018-05-02T08:39:49.405Z,2.13
2018-05-02T08:42:15.937Z,2.70
2018-05-02T08:44:43.090Z,2.30
2018-05-02T08:47:10.629Z,2.30
2018-05-02T08:49:37.427Z,2.20
2018-05-02T08:52:04.625Z,2.37
2018-05-02T08:54:31.508Z,2.20
2018-05-02T08:56:57.985Z,2.00
2018-05-02T08:59:26.503Z,2.27
2018-05-02T09:01:54.660Z,2.13
2018-05-02T09:04:21.131Z,2.50
2018-05-02T09:06:47.575Z,2.50
2018-05-02T09:09:14.002Z,1.70
2018-05-02T09:11:40.782Z,2.10
2018-05-02T09:14:07.323Z,2.10
2018-05-02T09:16:33.902Z,1.87
2018-05-02T09:19:00.279Z,2.17
2018-05-02T09:21:26.770Z,2.33
2018-05-02T09:23:53.154Z,1.90
2018-05-02T09:26:19.583Z,1.80
2018-05-02T09:28:45.973Z,1.87
2018-05-02T09:31:12.412Z,2.30
2018-05-02T09:33:38.835Z,2.20
2018-05-02T09:36:05.755Z,1.93
2018-05-02T09:38:32.359Z,2.40
2018-05-02T09:40:59.231Z,2.50
2018-05-02T09:43:25.651Z,2.30
2018-05-02T09:45:52.138Z,2.00
2018-05-02T09:48:20.203Z,3.30
2018-05-02T09:50:47.885Z,2.23
2018-05-02T09:53:14.404Z,2.70
2018-05-02T09:55:41.944Z,2.50
2018-05-02T09:58:08.439Z,2.77
2018-05-02T10:00:35.570Z,2.47
2018-05-02T10:03:01.960Z,2.90
2018-05-02T10:05:29.151Z,2.30
2018-05-02T10:07:55.607Z,2.13
2018-05-02T10:10:21.991Z,2.60
2018-05-02T10:12:48.954Z,2.80
2018-05-02T10:15:16.128Z,2.47
2018-05-02T10:17:43.360Z,2.70
2018-05-02T10:20:10.668Z,2.67
2018-05-02T10:22:37.467Z,2.73
2018-05-02T10:25:05.038Z,2.70
2018-05-02T10:27:32.668Z,3.03
2018-05-02T10:29:59.167Z,2.90
2018-05-02T10:32:25.621Z,2.67
2018-05-02T10:34:52.826Z,2.60
2018-05-02T10:37:19.229Z,3.17
2018-05-02T10:39:45.729Z,2.57
2018-05-02T10:42:13.927Z,2.30
2018-05-02T10:44:40.347Z,2.60
2018-05-02T10:47:07.185Z,2.27
2018-05-02T10:49:34.010Z,2.70
2018-05-02T10:52:00.937Z,2.40
2018-05-02T10:54:29.134Z,2.40
2018-05-02T10:56:57.167Z,2.87
2018-05-02T10:59:23.812Z,2.43
2018-05-02T11:01:51.217Z,2.60
2018-05-02T11:04:18.347Z,2.80
2018-05-02T11:06:44.898Z,2.70
2018-05-02T11:09:11.324Z,2.40
2018-05-02T11:11:38.251Z,3.30
2018-05-02T11:14:06.371Z,2.53
2018-05-02T11:16:33.380Z,2.00
2018-05-02T11:19:00.591Z,2.60
2018-05-02T11:21:27.869Z,2.50
2018-05-02T11:23:55.047Z,2.57
2018-05-02T11:26:21.966Z,2.60
2018-05-02T11:28:49.083Z,2.60
2018-05-02T11:31:17.131Z,2.90
2018-05-02T11:33:43.631Z,3.00
2018-05-02T11:36:10.822Z,3.10
2018-05-02T11:38:38.001Z,2.90
2018-05-02T11:41:04.501Z,2.70
2018-05-02T11:43:31.036Z,2.87
2018-05-02T11:45:59.783Z,3.10
2018-05-02T11:48:28.712Z,2.70
2018-05-02T11:53:30.213Z,2.67
2018-05-02T11:55:56.777Z,2.90
2018-05-02T11:58:23.934Z,2.90
2018-05-02T12:00:51.947Z,3.20
2018-05-02T12:03:19.204Z,3.23
2018-05-02T12:05:46.124Z,2.87
2018-05-02T12:08:12.629Z,2.43
2018-05-02T12:10:40.118Z,2.60
2018-05-02T12:13:06.568Z,2.77
2018-05-02T12:15:32.982Z,2.97
2018-05-02T12:17:59.573Z,2.90
2018-05-02T12:20:26.045Z,3.10
2018-05-02T12:22:54.264Z,3.03
2018-05-02T12:25:20.634Z,3.07
2018-05-02T12:27:47.254Z,2.60
2018-05-02T12:30:13.675Z,2.30
2018-05-02T12:32:40.518Z,2.60
2018-05-02T12:35:07.834Z,2.90
2018-05-02T12:37:34.422Z,2.70
2018-05-02T12:40:01.178Z,3.00
2018-05-02T12:42:27.697Z,2.90
2018-05-02T12:44:54.365Z,2.80
2018-05-02T12:47:20.880Z,3.10
2018-05-02T12:49:47.292Z,2.70
2018-05-02T12:52:13.759Z,2.67
2018-05-02T12:54:40.274Z,3.53
2018-05-02T12:57:07.735Z,3.13
2018-05-02T12:59:34.336Z,2.90
2018-05-02T13:02:02.455Z,2.63
2018-05-02T13:04:28.866Z,3.23
2018-05-02T13:06:55.324Z,3.10
2018-05-02T13:09:21.772Z,2.70
2018-05-02T13:11:48.502Z,2.80
2018-05-02T13:14:15.146Z,2.80
2018-05-02T13:16:43.245Z,2.53
2018-05-02T13:19:11.177Z,2.60
2018-05-02T13:21:37.842Z,2.83
2018-05-02T13:24:06.171Z,3.13
2018-05-02T13:26:34.433Z,2.67
2018-05-02T13:29:01.383Z,3.20
2018-05-02T13:31:28.562Z,3.03
2018-05-02T13:33:55.206Z,3.43
2018-05-02T13:36:22.750Z,3.47
2018-05-02T13:38:50.342Z,3.23
2018-05-02T13:41:18.103Z,2.70
2018-05-02T13:43:49.794Z,3.20
2018-05-02T13:46:39.856Z,3.13
2018-05-02T13:49:09.609Z,3.00
2018-05-02T13:51:36.268Z,3.70
2018-05-02T13:54:02.811Z,2.53
2018-05-02T13:56:30.598Z,3.27
2018-05-02T13:58:58.322Z,3.43
2018-05-02T14:01:24.846Z,2.90
2018-05-02T14:03:52.557Z,2.83
2018-05-02T14:06:23.386Z,3.67
2018-05-02T14:08:50.225Z,3.30
2018-05-02T14:11:21.465Z,3.40
2018-05-02T14:13:48.566Z,3.43
2018-05-02T14:16:16.029Z,3.20
2018-05-02T14:18:48.892Z,2.90
2018-05-02T14:21:18.417Z,3.37
2018-05-02T14:23:45.744Z,3.10
2018-05-02T14:26:18.426Z,3.40
2018-05-02T14:28:46.609Z,3.13
2018-05-02T14:31:13.777Z,3.27
2018-05-02T14:33:41.540Z,3.30
2018-05-02T14:36:08.120Z,3.67
2018-05-02T14:38:37.192Z,3.13
2018-05-02T14:41:06.469Z,2.83
2018-05-02T14:43:34.764Z,2.73
2018-05-02T14:46:03.420Z,3.93
2018-05-02T14:48:32.484Z,2.87
2018-05-02T14:51:00.025Z,3.30
2018-05-02T14:53:31.647Z,2.80
2018-05-02T14:56:01.109Z,2.80
2018-05-02T14:58:30.897Z,2.97
2018-05-02T15:00:59.127Z,3.33
2018-05-02T15:03:27.846Z,3.27
2018-05-02T15:05:55.055Z,3.47
2018-05-02T15:08:22.326Z,3.10
2018-05-02T15:10:50.112Z,3.37
2018-05-02T15:13:17.452Z,2.90
2018-05-02T15:15:44.715Z,2.50
2018-05-02T15:18:11.369Z,2.93
2018-05-02T15:20:38.534Z,2.97
2018-05-02T15:23:06.310Z,3.03
2018-05-02T15:25:34.480Z,2.57
2018-05-02T15:28:03.001Z,2.60
2018-05-02T15:30:29.479Z,3.40
2018-05-02T15:32:56.961Z,3.10
2018-05-02T15:35:26.196Z,2.93
2018-05-02T15:37:53.329Z,3.30
2018-05-02T15:40:22.781Z,3.27
2018-05-02T15:42:50.220Z,2.90
2018-05-02T15:45:18.410Z,2.80
2018-05-02T15:47:45.811Z,3.80
2018-05-02T15:50:13.598Z,4.03
2018-05-02T15:52:40.453Z,3.57
2018-05-02T15:55:07.150Z,4.07
2018-05-02T15:57:33.727Z,3.70
2018-05-02T16:00:02.180Z,4.00
2018-05-02T16:02:30.771Z,3.80
2018-05-02T16:04:58.896Z,3.20
2018-05-02T16:07:28.519Z,3.13
2018-05-02T16:09:59.928Z,3.47
2018-05-02T16:12:28.379Z,3.33
2018-05-02T16:14:56.217Z,3.33
2018-05-02T16:17:24.783Z,3.07
2018-05-02T16:19:51.868Z,3.50
2018-05-02T16:22:19.003Z,3.93
2018-05-02T16:24:46.497Z,3.50
2018-05-02T16:27:14.811Z,3.93
2018-05-02T16:29:42.549Z,3.43
2018-05-02T16:32:09.065Z,3.20
2018-05-02T16:34:37.142Z,3.13
2018-05-02T16:37:04.698Z,3.53
2018-05-02T16:39:32.868Z,3.60
2018-05-02T16:42:01.257Z,2.87
2018-05-02T16:44:28.083Z,4.20
2018-05-02T16:46:55.177Z,3.83
2018-05-02T16:49:23.848Z,4.00
2018-05-02T16:51:51.842Z,3.10
2018-05-02T16:54:19.516Z,3.13
2018-05-02T16:56:47.547Z,3.23
2018-05-02T16:59:14.985Z,3.57
2018-05-02T17:01:41.545Z,3.47
2018-05-02T17:04:09.972Z,3.40
2018-05-02T17:06:36.916Z,3.60
2018-05-02T17:09:05.087Z,3.50
2018-05-02T17:11:32.963Z,3.60
2018-05-02T17:13:59.715Z,4.20
2018-05-02T17:16:27.360Z,3.60
2018-05-02T17:18:55.688Z,4.20
2018-05-02T17:21:22.353Z,4.17
2018-05-02T17:23:50.037Z,4.20
2018-05-02T17:26:17.683Z,4.07
2018-05-02T17:28:44.351Z,4.83
2018-05-02T17:31:11.078Z,4.63
2018-05-02T17:33:38.771Z,4.00
2018-05-02T17:36:05.546Z,3.97
2018-05-02T17:38:32.068Z,4.57
2018-05-02T17:41:05.490Z,4.67
2018-05-02T17:43:32.443Z,4.90
2018-05-02T17:45:58.926Z,4.70
2018-05-02T17:48:25.367Z,4.03
2018-05-02T17:50:52.162Z,4.77
2018-05-02T17:53:19.353Z,4.40
2018-05-02T17:55:47.638Z,4.27
2018-05-02T17:58:15.715Z,5.00
2018-05-02T18:00:42.870Z,4.20
2018-05-02T18:03:09.453Z,4.63
2018-05-02T18:05:36.599Z,5.33
2018-05-02T18:08:03.185Z,4.83
2018-05-02T18:10:29.704Z,4.37
2018-05-02T18:12:56.244Z,4.80
2018-05-02T18:15:22.676Z,4.57
2018-05-02T18:17:50.833Z,5.37
2018-05-02T18:20:17.860Z,4.63
2018-05-02T18:22:44.528Z,4.80
2018-05-02T18:25:11.299Z,5.43
2018-05-02T18:27:38.248Z,5.17
2018-05-02T18:30:05.427Z,5.40
2018-05-02T18:32:32.077Z,5.47
2018-05-02T18:34:59.357Z,5.07
2018-05-02T18:37:26.618Z,5.80
2018-05-02T18:39:53.547Z,5.67
2018-05-02T18:42:21.787Z,5.10
2018-05-02T18:44:50.507Z,5.30
2018-05-02T18:47:17.604Z,5.13
2018-05-02T18:49:44.309Z,4.87
2018-05-02T18:52:11.123Z,5.13
2018-05-02T18:54:38.399Z,6.13
2018-05-02T18:57:04.969Z,5.40
2018-05-02T18:59:31.362Z,5.40
2018-05-02T19:01:57.949Z,5.13
2018-05-02T19:04:24.581Z,4.77
2018-05-02T19:06:52.027Z,6.03
2018-05-02T19:09:19.151Z,5.23
2018-05-02T19:11:45.834Z,5.60
2018-05-02T19:14:13.002Z,6.07
2018-05-02T19:16:41.332Z,5.33
2018-05-02T19:19:14.535Z,6.03
2018-05-02T19:21:45.422Z,6.63
2018-05-02T19:24:15.777Z,6.00
2018-05-02T19:26:43.817Z,6.80
2018-05-02T19:29:10.474Z,5.80
2018-05-02T19:31:43.154Z,6.30
2018-05-02T19:34:11.344Z,6.00
2018-05-02T19:36:43.477Z,7.30
2018-05-02T19:39:10.164Z,6.00
2018-05-02T19:41:43.328Z,6.20
2018-05-02T19:44:11.599Z,7.13
2018-05-02T19:46:38.109Z,5.57
2018-05-02T19:49:05.129Z,6.33
2018-05-02T19:51:37.611Z,6.67
2018-05-02T19:54:04.269Z,7.20
2018-05-02T19:56:31.777Z,6.20
2018-05-02T19:58:58.751Z,5.20
2018-05-02T20:01:31.452Z,6.30
2018-05-02T20:03:57.976Z,6.70
2018-05-02T20:06:24.800Z,6.60
2018-05-02T20:08:58.451Z,6.43
2018-05-02T20:11:31.182Z,6.53
2018-05-02T20:14:01.685Z,6.40
2018-05-02T20:16:28.527Z,6.50
2018-05-02T20:18:58.000Z,5.67
2018-05-02T20:21:25.000Z,5.57
2018-05-02T20:23:51.482Z,6.03
2018-05-02T20:26:18.100Z,5.90
2018-05-02T20:28:45.069Z,6.00
2018-05-02T20:31:12.000Z,7.10
2018-05-02T20:33:38.757Z,6.40
2018-05-02T20:36:06.941Z,6.63
2018-05-02T20:38:35.254Z,6.90
2018-05-02T20:41:03.685Z,6.93
2018-05-02T20:43:31.319Z,6.13
2018-05-02T20:45:57.973Z,6.73
2018-05-02T20:48:24.919Z,7.07
2018-05-02T20:50:51.455Z,6.67
2018-05-02T20:53:18.057Z,6.83
2018-05-02T20:55:47.438Z,7.40
2018-05-02T20:58:14.439Z,7.50
2018-05-02T21:00:41.091Z,6.50
2018-05-02T21:03:07.607Z,6.17
2018-05-02T21:05:37.464Z,6.67
2018-05-02T21:08:04.237Z,6.47
2018-05-02T21:10:30.931Z,6.63
2018-05-02T21:12:57.708Z,6.17
2018-05-02T21:15:24.973Z,5.97
2018-05-02T21:17:51.610Z,5.83
2018-05-02T21:20:17.950Z,6.13
2018-05-02T21:22:44.681Z,5.70
2018-05-02T21:25:11.224Z,6.10
2018-05-02T21:27:37.760Z,6.17
2018-05-02T21:30:05.041Z,5.90
2018-05-02T21:32:31.695Z,6.00
2018-05-02T21:34:58.214Z,5.10
2018-05-02T21:37:25.459Z,5.10
2018-05-02T21:39:52.276Z,6.10
2018-05-02T21:42:19.686Z,5.57
2018-05-02T21:44:46.166Z,5.43
2018-05-02T21:47:14.216Z,5.67
2018-05-02T21:49:40.854Z,4.63
2018-05-02T21:52:07.543Z,5.80
2018-05-02T21:54:34.412Z,5.40
2018-05-02T21:57:01.647Z,5.70
2018-05-02T21:59:29.019Z,5.53
2018-05-02T22:01:56.092Z,4.50
2018-05-02T22:04:22.724Z,4.70
2018-05-02T22:06:49.904Z,4.73
2018-05-02T22:09:16.413Z,4.80
2018-05-02T22:11:43.000Z,5.37
2018-05-02T22:14:10.269Z,5.07
2018-05-02T22:16:38.166Z,5.40
2018-05-02T22:19:05.369Z,5.73
2018-05-02T22:21:32.644Z,5.33
2018-05-02T22:23:59.999Z,6.07
2018-05-02T22:26:27.807Z,6.13
2018-05-02T22:28:54.574Z,5.70
2018-05-02T22:31:21.162Z,5.53
2018-05-02T22:33:47.914Z,5.37
2018-05-02T22:36:14.517Z,5.97
2018-05-02T22:38:42.885Z,5.70
2018-05-02T22:41:09.626Z,5.23
2018-05-02T22:43:36.041Z,5.90
2018-05-02T22:46:02.576Z,4.37
2018-05-02T22:48:29.494Z,5.40
2018-05-02T22:50:56.288Z,5.43
2018-05-02T22:53:22.784Z,5.10
2018-05-02T22:55:49.271Z,5.63
2018-05-02T22:58:15.687Z,4.87
2018-05-02T23:00:44.471Z,4.77
2018-05-02T23:03:11.523Z,6.83
2018-05-02T23:05:38.021Z,5.13
2018-05-02T23:08:05.917Z,5.50
2018-05-02T23:10:32.802Z,6.10
2018-05-02T23:12:59.581Z,5.03
2018-05-02T23:15:26.050Z,5.13
2018-05-02T23:17:52.702Z,5.30
2018-05-02T23:20:20.006Z,5.70
2018-05-02T23:22:46.439Z,5.00
2018-05-02T23:25:12.904Z,6.30
2018-05-02T23:27:40.085Z,5.10
2018-05-02T23:30:07.325Z,6.57
2018-05-02T23:32:34.891Z,5.53
2018-05-02T23:35:02.060Z,7.00
2018-05-02T23:37:28.563Z,4.93
2018-05-02T23:39:55.077Z,5.30
2018-05-02T23:42:21.518Z,4.90
2018-05-02T23:44:48.006Z,5.77
2018-05-02T23:47:14.852Z,5.87
2018-05-02T23:49:41.242Z,5.70
2018-05-02T23:52:09.482Z,6.20
2018-05-02T23:54:36.009Z,5.80
2018-05-02T23:57:03.137Z,5.50
2018-05-02T23:59:38.030Z,5.70
